createdAt,value
2023-05-12T00:01:02.116Z,91.80
2023-05-12T00:03:36.294Z,91.70
2023-05-12T00:06:04.520Z,91.60
2023-05-12T00:08:39.165Z,91.90
2023-05-12T00:11:06.963Z,91.60
2023-05-12T00:13:43.152Z,91.50
2023-05-12T00:16:11.158Z,91.40
2023-05-12T00:18:45.297Z,91.50
2023-05-12T00:21:13.277Z,91.20
2023-05-12T00:23:41.109Z,91.20
2023-05-12T00:26:15.164Z,91.30
2023-05-12T00:28:44.333Z,91.10
2023-05-12T00:31:18.178Z,91.10
2023-05-12T00:33:45.996Z,91.20
2023-05-12T00:36:20.351Z,91.10
2023-05-12T00:38:48.089Z,91.00
2023-05-12T00:41:16.152Z,91.00
2023-05-12T00:43:52.184Z,90.90
2023-05-12T00:46:20.366Z,90.90
2023-05-12T00:48:55.138Z,90.80
2023-05-12T00:51:43.145Z,90.80
2023-05-12T00:54:17.220Z,90.90
2023-05-12T00:56:52.181Z,90.90
2023-05-12T00:59:28.301Z,90.80
2023-05-12T01:01:56.403Z,90.80
2023-05-12T01:04:24.175Z,90.70
2023-05-12T01:07:04.154Z,90.70
2023-05-12T01:09:31.903Z,90.60
2023-05-12T01:12:06.189Z,90.70
2023-05-12T01:14:35.336Z,90.50
2023-05-12T01:17:15.195Z,90.90
2023-05-12T01:19:47.314Z,90.50
2023-05-12T01:22:23.358Z,90.50
2023-05-12T01:24:52.473Z,90.50
2023-05-12T01:27:22.823Z,90.30
2023-05-12T01:29:58.200Z,90.30
2023-05-12T01:32:26.329Z,90.30
2023-05-12T01:35:01.300Z,90.40
2023-05-12T01:37:29.233Z,90.30
2023-05-12T01:40:03.171Z,90.30
2023-05-12T01:42:32.368Z,90.40
2023-05-12T01:45:06.314Z,90.30
2023-05-12T01:47:34.179Z,90.30
2023-05-12T01:50:02.105Z,90.20
2023-05-12T01:52:36.214Z,90.20
2023-05-12T01:55:04.287Z,90.20
2023-05-12T01:57:40.180Z,90.10
2023-05-12T02:00:09.788Z,90.00
2023-05-12T02:02:44.241Z,90.00
2023-05-12T02:05:12.561Z,90.00
2023-05-12T02:07:47.220Z,90.00
2023-05-12T02:10:15.118Z,89.80
2023-05-12T02:12:44.213Z,89.60
2023-05-12T02:15:19.190Z,89.30
2023-05-12T02:17:46.960Z,89.20
2023-05-12T02:20:21.395Z,89.00
2023-05-12T02:22:49.331Z,88.70
2023-05-12T02:25:24.292Z,88.40
2023-05-12T02:27:53.392Z,88.40
2023-05-12T02:30:21.514Z,88.40
2023-05-12T02:32:56.215Z,88.30
2023-05-12T02:35:24.000Z,88.00
2023-05-12T02:37:58.194Z,87.90
2023-05-12T02:40:25.978Z,87.50
2023-05-12T02:43:01.225Z,87.40
2023-05-12T02:45:29.461Z,87.50
2023-05-12T02:48:04.407Z,87.20
2023-05-12T02:50:32.356Z,87.20
2023-05-12T02:53:13.270Z,87.00
2023-05-12T02:55:41.134Z,87.20
2023-05-12T02:58:10.285Z,86.80
2023-05-12T03:00:44.211Z,86.90
2023-05-12T03:03:12.415Z,86.60
2023-05-12T03:05:47.213Z,86.50
2023-05-12T03:08:15.014Z,86.40
2023-05-12T03:10:50.221Z,86.50
2023-05-12T03:13:19.336Z,86.40
2023-05-12T03:15:53.294Z,86.20
2023-05-12T03:18:21.380Z,86.40
2023-05-12T03:20:49.287Z,85.90
2023-05-12T03:23:24.188Z,85.90
2023-05-12T03:25:51.939Z,86.00
2023-05-12T03:28:29.203Z,85.80
2023-05-12T03:30:56.979Z,85.70
2023-05-12T03:33:31.329Z,85.80
2023-05-12T03:35:59.624Z,85.80
2023-05-12T03:38:27.446Z,85.30
2023-05-12T03:41:11.191Z,85.30
2023-05-12T03:43:40.466Z,85.40
2023-05-12T03:46:15.307Z,85.40
2023-05-12T03:48:43.329Z,85.50
2023-05-12T03:51:17.338Z,85.30
2023-05-12T03:53:51.837Z,85.60
2023-05-12T03:56:26.312Z,85.50
2023-05-12T03:58:55.565Z,85.70
2023-05-12T04:01:23.399Z,85.40
2023-05-12T04:03:58.334Z,85.20
2023-05-12T04:06:26.156Z,85.10
2023-05-12T04:09:00.225Z,84.80
2023-05-12T04:11:28.119Z,85.00
2023-05-12T04:14:04.237Z,84.60
2023-05-12T04:16:32.006Z,84.70
2023-05-12T04:19:06.400Z,84.50
2023-05-12T04:21:34.211Z,84.20
2023-05-12T04:24:01.956Z,84.10
2023-05-12T04:26:36.206Z,83.90
2023-05-12T04:29:05.320Z,83.70
2023-05-12T04:31:39.232Z,83.50
2023-05-12T04:34:07.135Z,83.30
2023-05-12T04:36:41.251Z,83.10
2023-05-12T04:39:09.459Z,82.90
2023-05-12T04:41:44.388Z,82.80
2023-05-12T04:44:13.554Z,82.80
2023-05-12T04:46:41.456Z,82.70
2023-05-12T04:49:16.208Z,82.80
2023-05-12T04:51:50.352Z,82.90
2023-05-12T04:54:31.250Z,82.80
2023-05-12T04:56:59.223Z,82.80
2023-05-12T04:59:35.251Z,82.60
2023-05-12T05:02:03.051Z,82.70
2023-05-12T05:04:37.281Z,82.90
2023-05-12T05:07:05.245Z,83.00
2023-05-12T05:09:34.927Z,83.10
2023-05-12T05:12:10.224Z,83.10
2023-05-12T05:14:40.071Z,83.20
2023-05-12T05:17:14.221Z,83.40
2023-05-12T05:19:55.136Z,83.30
2023-05-12T05:22:32.204Z,83.60
2023-05-12T05:25:00.193Z,84.20
2023-05-12T05:27:27.972Z,82.00
2023-05-12T05:30:04.230Z,82.60
2023-05-12T05:32:32.044Z,82.80
2023-05-12T05:35:13.286Z,83.30
2023-05-12T05:37:41.512Z,83.50
2023-05-12T05:40:17.365Z,83.90
2023-05-12T05:42:46.465Z,84.80
2023-05-12T05:45:15.803Z,85.50
2023-05-12T05:47:50.334Z,85.30
2023-05-12T05:50:18.346Z,85.20
2023-05-12T05:52:52.227Z,85.30
2023-05-12T05:55:20.387Z,85.30
2023-05-12T05:57:55.246Z,85.90
2023-05-12T06:00:24.484Z,86.00
2023-05-12T06:02:58.468Z,85.50
2023-05-12T06:05:26.326Z,85.20
2023-05-12T06:07:54.101Z,85.80
2023-05-12T06:10:28.266Z,85.90
2023-05-12T06:12:56.028Z,86.10
2023-05-12T06:15:31.345Z,86.20
2023-05-12T06:17:59.153Z,86.20
2023-05-12T06:20:33.314Z,85.90
2023-05-12T06:23:01.071Z,85.90
2023-05-12T06:25:28.845Z,85.90
2023-05-12T06:28:03.251Z,86.20
2023-05-12T06:30:32.346Z,86.40
2023-05-12T06:33:07.317Z,87.00
2023-05-12T06:35:35.629Z,87.20
2023-05-12T06:38:10.386Z,87.60
2023-05-12T06:40:38.209Z,87.60
2023-05-12T06:43:06.003Z,87.70
2023-05-12T06:45:41.290Z,87.60
2023-05-12T06:48:09.374Z,87.60
2023-05-12T06:50:44.247Z,87.50
2023-05-12T06:53:32.302Z,87.60
2023-05-12T06:56:06.277Z,88.00
2023-05-12T06:58:34.116Z,87.50
2023-05-12T07:01:09.379Z,87.10
2023-05-12T07:03:37.215Z,87.00
2023-05-12T07:06:05.320Z,86.70
2023-05-12T07:08:39.263Z,86.90
2023-05-12T07:11:07.074Z,86.80
2023-05-12T07:13:41.364Z,86.00
2023-05-12T07:16:10.568Z,86.00
2023-05-12T07:18:45.312Z,86.20
2023-05-12T07:21:13.980Z,86.70
2023-05-12T07:23:48.392Z,86.50
2023-05-12T07:26:17.011Z,85.90
2023-05-12T07:28:44.769Z,86.10
2023-05-12T07:31:20.323Z,86.90
2023-05-12T07:33:48.233Z,87.20
2023-05-12T07:36:22.323Z,87.30
2023-05-12T07:38:50.186Z,87.30
2023-05-12T07:41:25.417Z,87.20
2023-05-12T07:43:53.259Z,86.50
2023-05-12T07:46:22.381Z,85.90
2023-05-12T07:48:57.275Z,85.50
2023-05-12T07:51:25.095Z,85.10
2023-05-12T07:53:59.309Z,84.40
2023-05-12T07:56:27.090Z,83.70
2023-05-12T07:59:01.281Z,83.20
2023-05-12T08:01:30.355Z,82.10
2023-05-12T08:04:04.589Z,81.40
2023-05-12T08:06:32.487Z,81.10
2023-05-12T08:09:00.393Z,80.60
2023-05-12T08:11:34.326Z,80.10
2023-05-12T08:14:02.677Z,80.40
2023-05-12T08:16:38.312Z,78.90
2023-05-12T08:19:06.279Z,78.60
2023-05-12T08:21:40.270Z,78.60
2023-05-12T08:24:08.064Z,77.30
2023-05-12T08:26:42.441Z,77.20
2023-05-12T08:29:10.208Z,77.10
2023-05-12T08:31:39.625Z,76.30
2023-05-12T08:34:14.285Z,76.50
2023-05-12T08:36:42.487Z,76.70
2023-05-12T08:39:17.290Z,76.70
2023-05-12T08:41:49.520Z,76.80
2023-05-12T08:44:26.456Z,76.20
2023-05-12T08:46:57.863Z,76.20
2023-05-12T08:49:37.320Z,76.00
2023-05-12T08:52:29.303Z,74.80
2023-05-12T08:55:03.904Z,74.50
2023-05-12T08:57:32.652Z,74.30
2023-05-12T09:00:01.242Z,73.90
2023-05-12T09:02:51.207Z,74.10
2023-05-12T09:05:20.645Z,74.70
2023-05-12T09:07:57.304Z,74.50
2023-05-12T09:10:34.999Z,73.60
2023-05-12T09:13:12.322Z,73.60
2023-05-12T09:15:43.704Z,73.60
2023-05-12T09:18:19.428Z,73.40
2023-05-12T09:20:47.279Z,73.30
2023-05-12T09:23:16.583Z,73.00
2023-05-12T09:25:51.290Z,72.40
2023-05-12T09:28:19.115Z,71.80
2023-05-12T09:30:53.341Z,71.40
2023-05-12T09:33:25.338Z,71.80
2023-05-12T09:35:59.303Z,71.80
2023-05-12T09:38:27.141Z,71.50
2023-05-12T09:41:01.422Z,71.80
2023-05-12T09:43:29.173Z,72.00
2023-05-12T09:45:56.992Z,71.60
2023-05-12T09:48:32.327Z,71.50
2023-05-12T09:51:00.299Z,71.10
2023-05-12T09:53:34.305Z,71.50
2023-05-12T09:56:02.111Z,71.40
2023-05-12T09:58:37.319Z,71.80
2023-05-12T10:01:21.983Z,72.10
2023-05-12T10:04:01.478Z,71.80
2023-05-12T10:06:33.745Z,71.40
2023-05-12T10:09:22.445Z,71.30
2023-05-12T10:11:53.902Z,71.30
2023-05-12T10:14:30.342Z,70.70
2023-05-12T10:17:00.268Z,71.10
2023-05-12T10:19:37.563Z,70.90
2023-05-12T10:22:08.902Z,70.60
2023-05-12T10:24:44.608Z,70.70
2023-05-12T10:27:14.668Z,70.70
2023-05-12T10:29:43.042Z,70.90
2023-05-12T10:32:18.572Z,70.90
2023-05-12T10:34:48.193Z,70.90
2023-05-12T10:37:22.329Z,70.90
2023-05-12T10:39:52.210Z,71.10
2023-05-12T10:42:32.448Z,71.10
2023-05-12T10:45:00.322Z,71.30
2023-05-12T10:47:44.529Z,71.30
2023-05-12T10:50:14.569Z,71.00
2023-05-12T10:53:01.486Z,70.50
2023-05-12T10:55:34.298Z,70.60
2023-05-12T10:58:14.167Z,70.50
2023-05-12T11:00:47.072Z,70.30
2023-05-12T11:03:25.171Z,70.60
2023-05-12T11:06:04.926Z,71.50
2023-05-12T11:08:42.242Z,70.50
2023-05-12T11:11:11.064Z,70.70
2023-05-12T11:13:45.437Z,71.20
2023-05-12T11:16:14.079Z,71.40
2023-05-12T11:18:41.945Z,71.50
2023-05-12T11:21:20.352Z,71.70
2023-05-12T11:23:52.018Z,71.60
2023-05-12T11:26:26.332Z,72.20
2023-05-12T11:28:54.413Z,72.30
2023-05-12T11:31:30.423Z,72.40
2023-05-12T11:34:12.119Z,72.10
2023-05-12T11:36:56.469Z,71.70
2023-05-12T11:39:27.405Z,71.60
2023-05-12T11:42:05.516Z,71.70
2023-05-12T11:44:54.361Z,71.80
2023-05-12T11:47:22.171Z,71.50
2023-05-12T11:49:58.327Z,71.00
2023-05-12T11:52:35.405Z,70.70
2023-05-12T11:55:18.436Z,70.70
2023-05-12T11:57:57.177Z,70.50
2023-05-12T12:00:36.413Z,70.50
2023-05-12T12:03:22.442Z,70.50
2023-05-12T12:06:06.513Z,70.50
2023-05-12T12:08:38.702Z,70.60
2023-05-12T12:11:13.711Z,70.70
2023-05-12T12:13:49.448Z,70.20
2023-05-12T12:16:23.606Z,69.80
2023-05-12T12:18:51.723Z,69.70
2023-05-12T12:21:20.102Z,69.60
2023-05-12T12:23:55.383Z,69.50
2023-05-12T12:26:23.219Z,69.80
2023-05-12T12:28:57.379Z,69.80
2023-05-12T12:31:25.304Z,69.70
2023-05-12T12:33:59.400Z,69.80
2023-05-12T12:36:27.230Z,70.00
2023-05-12T12:39:02.365Z,70.20
2023-05-12T12:41:30.189Z,70.10
2023-05-12T12:43:58.046Z,70.00
2023-05-12T12:46:32.436Z,70.20
2023-05-12T12:49:00.321Z,70.30
2023-05-12T12:51:45.026Z,70.30
2023-05-12T12:54:21.592Z,70.00
2023-05-12T12:56:55.393Z,69.60
2023-05-12T12:59:23.345Z,69.70
2023-05-12T13:01:57.573Z,69.80
2023-05-12T13:04:25.333Z,69.50
2023-05-12T13:06:53.277Z,69.40
2023-05-12T13:09:29.363Z,69.30
2023-05-12T13:11:58.019Z,69.30
2023-05-12T13:14:32.494Z,69.10
2023-05-12T13:17:00.260Z,69.00
2023-05-12T13:19:37.242Z,69.20
2023-05-12T13:22:06.086Z,69.40
2023-05-12T13:24:42.557Z,69.30
2023-05-12T13:27:10.360Z,69.00
2023-05-12T13:29:38.265Z,68.90
2023-05-12T13:32:13.447Z,68.20
2023-05-12T13:34:41.741Z,68.10
2023-05-12T13:37:16.366Z,68.50
2023-05-12T13:39:45.556Z,68.10
2023-05-12T13:42:19.521Z,68.40
2023-05-12T13:44:47.533Z,68.50
2023-05-12T13:47:15.635Z,68.00
2023-05-12T13:49:50.353Z,68.00
2023-05-12T13:52:18.152Z,68.40
2023-05-12T13:55:00.374Z,68.30
2023-05-12T13:57:28.244Z,68.80
2023-05-12T14:00:04.458Z,69.00
2023-05-12T14:02:32.319Z,68.90
2023-05-12T14:05:06.539Z,68.60
2023-05-12T14:07:34.289Z,68.40
2023-05-12T14:10:03.563Z,67.40
2023-05-12T14:12:37.403Z,67.40
2023-05-12T14:15:29.128Z,67.60
2023-05-12T14:18:00.427Z,67.70
2023-05-12T14:20:28.196Z,67.90
2023-05-12T14:23:02.382Z,68.00
2023-05-12T14:25:31.600Z,67.80
2023-05-12T14:28:06.642Z,67.70
2023-05-12T14:30:35.490Z,68.10
2023-05-12T14:33:03.566Z,68.10
2023-05-12T14:35:38.433Z,68.20
2023-05-12T14:38:06.213Z,67.90
2023-05-12T14:40:41.408Z,67.40
2023-05-12T14:43:09.343Z,67.30
2023-05-12T14:45:43.669Z,67.30
2023-05-12T14:48:11.554Z,67.50
2023-05-12T14:50:46.598Z,67.60
2023-05-12T14:53:20.742Z,67.20
2023-05-12T14:56:03.883Z,67.00
2023-05-12T14:58:31.743Z,66.50
2023-05-12T15:01:01.867Z,67.10
2023-05-12T15:03:36.463Z,66.90
2023-05-12T15:06:07.031Z,67.00
2023-05-12T15:08:42.425Z,67.20
2023-05-12T15:11:11.626Z,67.10
2023-05-12T15:13:45.460Z,67.20
2023-05-12T15:16:13.265Z,67.30
2023-05-12T15:18:47.587Z,67.30
2023-05-12T15:21:15.385Z,67.40
2023-05-12T15:23:44.024Z,67.80
2023-05-12T15:26:32.215Z,67.90
2023-05-12T15:29:01.874Z,67.90
2023-05-12T15:31:36.451Z,67.60
2023-05-12T15:34:04.444Z,68.00
2023-05-12T15:36:38.405Z,67.80
2023-05-12T15:39:06.185Z,67.50
2023-05-12T15:41:41.568Z,66.70
2023-05-12T15:44:09.368Z,66.90
2023-05-12T15:46:37.452Z,66.90
2023-05-12T15:49:11.426Z,66.90
2023-05-12T15:51:39.426Z,67.90
2023-05-12T15:54:28.438Z,66.70
2023-05-12T15:57:04.911Z,66.80
2023-05-12T15:59:39.426Z,66.30
2023-05-12T16:02:07.791Z,66.60
2023-05-12T16:04:42.577Z,66.80
2023-05-12T16:07:10.329Z,67.70
2023-05-12T16:09:38.071Z,68.90
2023-05-12T16:12:14.435Z,67.60
2023-05-12T16:14:42.317Z,68.10
2023-05-12T16:17:23.590Z,67.90
2023-05-12T16:19:53.515Z,67.50
2023-05-12T16:22:27.430Z,67.60
2023-05-12T16:24:56.424Z,67.80
2023-05-12T16:27:32.676Z,67.80
2023-05-12T16:30:00.588Z,67.60
2023-05-12T16:32:28.450Z,67.70
2023-05-12T16:35:03.477Z,68.10
2023-05-12T16:37:31.560Z,67.60
2023-05-12T16:40:06.454Z,67.20
2023-05-12T16:42:35.681Z,67.50
2023-05-12T16:45:10.428Z,68.00
2023-05-12T16:47:38.329Z,67.80
2023-05-12T16:50:13.777Z,68.40
2023-05-12T16:52:41.577Z,68.20
2023-05-12T16:55:29.430Z,68.10
2023-05-12T16:57:58.677Z,68.10
2023-05-12T17:00:33.880Z,74.20
2023-05-12T17:03:03.757Z,69.90
2023-05-12T17:05:32.370Z,68.80
2023-05-12T17:08:06.488Z,68.50
2023-05-12T17:10:34.273Z,68.80
2023-05-12T17:13:11.527Z,68.20
2023-05-12T17:15:40.190Z,67.90
2023-05-12T17:18:14.563Z,67.60
2023-05-12T17:20:42.297Z,67.40
2023-05-12T17:23:10.149Z,67.30
2023-05-12T17:25:44.513Z,67.40
2023-05-12T17:28:13.677Z,67.40
2023-05-12T17:30:48.460Z,68.00
2023-05-12T17:33:16.376Z,67.30
2023-05-12T17:36:03.807Z,67.40
2023-05-12T17:38:38.425Z,68.10
2023-05-12T17:41:12.582Z,69.00
2023-05-12T17:43:41.684Z,68.60
2023-05-12T17:46:09.577Z,70.00
2023-05-12T17:48:44.458Z,69.10
2023-05-12T17:51:12.576Z,67.70
2023-05-12T17:53:46.547Z,70.00
2023-05-12T17:56:21.100Z,71.90
2023-05-12T17:58:56.470Z,69.60
2023-05-12T18:01:24.341Z,69.70
2023-05-12T18:03:59.655Z,69.70
2023-05-12T18:06:27.407Z,70.20
2023-05-12T18:08:56.509Z,70.70
